Portada
METAR-TAF:

METAR-TAF

Aeropuertos :

Mont-De-Marsan, Francia

latitud: 43-55N, longitud: 000-30W, altitud: 62 m

Observación

El informe se hizo hace 39 minutos, a las 15:00 UTC
Viento 11 kt del oeste, variando entre oeste-suroeste y noroeste
Temperatura 24°C
Humedad 47%
Presión 1021 hPa
Visibilidad 10 km o más
sin nubes por debajo de 1500 m y sin presencia de cumulonimbus.

METAR: LFBM 171500Z AUTO 28011KT 240V320 CAVOK 24/12 Q1021 NOSIG

Hora: 17:39 (15:39 UTC)

Pronóstico

El informe se hizo hace 1 hora y 39 minutos, a las 14:00 UTC
Pronóstico válido del 17 a las 15 UTC al 18 a las 15 UTC
Viento 10 kt del oeste-noroeste
Visibilidad 10 km o más
sin nubes por debajo de 1500 m y sin presencia de cumulonimbus.

TAF: LFBM 171400Z 1715/1815 29010KT CAVOK

Observaciones y pronósticos meteorológicos de más de 4000 aeropuertos (mensajes METAR y TAF).

Los puntos amarillos y rojos representan las estaciones disponibles.

Ponga el ratón en el punto deseado para ver el nombre de la estación.

Haga clic para ver las observaciones y los pronósticos meteorológicos.

Para cambiar el mapa : haga clic en los botones verdes con una cruz de color negro para hacer un zoom, en el botón verde con un guión para alejar o en las flechas verdes para mapas adyacentes.


METAR-TAF: